LIED/DCI METAR and TAF weather

Enter ICAO airport designator
Station Type Date Time Source
LIED METAR 2019/08/24 05:55 UTC NOAA

LIED 240555Z 33002KT 9999 FEW010 21/17 Q1016 RMK FEW VIS MIN 9999 WIND THR35 29002KT WIND THR17 /////KT BLU


Station Type Date Time Source
LIED Decoded METAR 2019/08/24 05:55 UTC NOAA

Station name not available
Aug 24, 2019 - 01:55 AM EDT / 2019.08.24 0555 UTC
Wind: from the NNW (330 degrees) at 2 MPH (2 KT):0
Visibility: greater than 7 mile(s):0
Sky conditions: mostly clear
Temperature: 69 F (21 C)
Dew Point: 62 F (17 C)
Relative Humidity: 77%
Pressure (altimeter): 30.00 in. Hg (1016 hPa)
ob: LIED 240555Z 33002KT 9999 FEW010 21/17 Q1016 RMK FEW VIS MIN 9999 WIND THR35 29002KT WIND THR17 /////KT BLU
cycle: 6

Station Type Date Time Source
LIED TAF 2015/03/04 18:18 UTC NOAA

TAF TAF LIED 041700Z 0418/0506 33014KT 9999 SCT020 BKN040 BKN060
TEMPO 0420/0502 33020KT 5000 RA OR SHRA FEW022CB

Example: see airport list